Date,TemperatureHighF,TemperatureAvgF,TemperatureLowF,DewpointHighF,DewpointAvgF,DewpointLowF,HumidityHigh,HumidityAvg,HumidityLow,PressureMaxIn,PressureMinIn,WindSpeedMaxMPH,WindSpeedAvgMPH,GustSpeedMaxMPH,PrecipitationSumIn
2013-4-1,45.7,41.0,33.2,42.8,28.6,12.6,90,64,32,30.02,29.69,16,4,22,0.04
2013-4-2,42.4,32.9,26.0,22.0,16.5,12.7,81,52,32,30.20,30.01,14,2,20,0.00
2013-4-3,41.9,31.7,22.1,22.2,14.6,9.4,78,51,31,30.43,30.19,18,2,20,0.00
2013-4-4,54.2,37.6,18.6,22.5,14.9,7.0,84,46,16,30.42,29.98,9,1,11,0.00
2013-4-5,57.6,42.6,28.3,33.2,23.8,19.3,74,49,29,30.18,29.93,15,2,21,0.00
2013-4-6,58.4,42.0,23.7,23.8,17.5,10.4,84,44,16,30.29,30.02,10,1,11,0.00
2013-4-7,74.4,61.1,51.7,47.1,36.2,19.0,60,40,27,30.02,29.85,18,4,24,0.00
2013-4-8,74.5,62.6,47.0,50.3,45.1,39.9,83,55,36,30.01,29.86,13,3,21,0.00
2013-4-9,80.5,69.5,54.4,56.3,52.1,48.2,85,55,39,30.06,29.85,15,2,18,0.00
2013-4-10,80.2,68.6,59.1,66.5,57.6,51.0,95,69,49,29.93,29.74,15,2,22,0.58
2013-4-11,75.8,64.8,56.9,60.9,56.8,51.0,96,77,54,29.85,29.55,10,2,15,0.00
2013-4-12,65.0,57.2,45.3,59.3,49.4,33.1,95,76,51,29.83,29.45,17,4,27,0.54
2013-4-13,54.2,46.2,38.2,36.7,33.5,31.3,80,62,47,30.01,29.82,16,3,21,0.00
2013-4-14,63.0,48.9,30.1,37.0,32.2,26.9,89,55,35,30.16,30.00,10,2,12,0.00
2013-4-15,67.9,60.8,54.8,49.7,44.2,35.2,66,55,46,30.07,29.96,15,4,18,0.00
2013-4-16,79.1,64.4,53.9,60.8,53.8,47.3,96,70,48,30.15,29.99,18,2,24,1.37
2013-4-17,67.8,59.3,51.2,56.8,52.8,47.8,97,80,61,30.21,30.06,6,1,10,0.00
2013-4-18,85.5,72.6,60.7,61.4,56.8,53.9,85,60,37,30.08,29.72,18,6,21,0.00
2013-4-19,71.7,59.9,44.0,61.3,48.3,30.0,87,66,53,29.83,29.43,14,5,24,0.18
2013-4-20,49.6,41.9,35.5,31.3,27.0,22.3,78,56,39,30.40,29.83,18,4,30,0.01
2013-4-21,54.4,41.8,26.3,30.0,23.0,16.3,88,51,23,30.60,30.40,8,1,11,0.00
2013-4-22,63.2,51.1,40.4,36.4,26.7,20.3,58,40,23,30.47,30.26,13,3,15,0.00
2013-4-23,71.7,56.2,37.7,42.1,34.3,28.9,79,47,25,30.27,29.93,7,1,12,0.00
2013-4-24,70.2,56.1,39.9,55.9,44.2,34.2,91,66,45,30.14,29.71,19,4,34,0.29
2013-4-25,59.5,46.2,32.1,39.5,33.0,27.9,95,64,32,30.35,30.14,12,2,23,0.01
2013-4-26,63.0,48.5,34.0,41.0,33.4,25.9,97,62,28,30.47,30.34,6,1,10,0.00
2013-4-27,74.5,55.7,33.7,42.4,34.9,30.8,94,53,22,30.39,30.13,11,2,13,0.00
2013-4-28,61.0,56.4,53.7,53.7,46.9,38.8,92,72,44,30.13,29.90,12,2,15,0.19
2013-4-29,63.9,57.1,53.1,57.8,52.4,47.5,92,84,75,30.00,29.90,7,1,12,0.08
2013-4-30,74.2,62.2,51.1,58.7,52.4,49.7,96,72,49,30.16,30.00,11,2,15,0.00